Time;durP1;ratioP1;P1;durP2;ratioP2;P2;SDS_P1;SDS_P2;PMS_P1;PMS_P2;Temp;Humidity;BMP_temperature;BMP_pressure;BME280_temperature;BME280_humidity;BME280_pressure;Samples;Min_cycle;Max_cycle;Signal;HPM_P1;HPM_P2
2024/02/10 00:04:26;;;;;;;59.10;40.00;;;;;;;7.06;76.42;96981.64;231879;202;137343;-62
2024/02/10 00:09:30;;;;;;;62.90;40.90;;;;;;;7.03;76.21;96992.34;232143;198;151573;-60
2024/02/10 00:14:34;;;;;;;63.50;40.60;;;;;;;7.02;76.09;96999.07;231961;204;136693;-62
2024/02/10 00:19:37;;;;;;;63.10;40.20;;;;;;;7.01;76.09;97004.49;232176;201;137485;-62
2024/02/10 00:24:40;;;;;;;62.80;38.00;;;;;;;7.00;76.13;97010.88;231889;201;151235;-62
2024/02/10 00:29:45;;;;;;;59.90;37.20;;;;;;;7.00;76.19;97012.47;232186;204;138436;-62
2024/02/10 00:34:48;;;;;;;61.00;38.80;;;;;;;7.04;76.13;97018.81;232046;201;137881;-62
2024/02/10 00:39:51;;;;;;;61.30;38.50;;;;;;;7.10;76.22;97015.39;232276;201;151456;-62
2024/02/10 00:44:59;;;;;;;61.30;40.00;;;;;;;7.15;76.22;97010.55;232236;204;138303;-62
2024/02/10 00:50:03;;;;;;;58.50;38.40;;;;;;;7.15;76.12;97013.39;232126;198;140889;-62
2024/02/10 00:55:06;;;;;;;64.90;39.50;;;;;;;7.14;76.25;97012.95;232075;204;152109;-62
2024/02/10 01:00:16;;;;;;;65.00;40.10;;;;;;;7.12;76.28;97012.06;232012;204;140691;-62
2024/02/10 01:05:19;;;;;;;62.50;38.80;;;;;;;7.08;76.60;97017.43;232009;197;137395;-62
2024/02/10 01:10:22;;;;;;;58.70;37.10;;;;;;;7.07;76.68;97020.40;232253;204;151581;-63
2024/02/10 01:15:30;;;;;;;59.10;36.60;;;;;;;7.13;76.89;97013.75;232282;204;138322;-62
2024/02/10 01:20:33;;;;;;;55.30;37.10;;;;;;;7.19;76.91;97009.04;232164;204;137823;-62
2024/02/10 01:25:36;;;;;;;58.90;39.60;;;;;;;7.25;76.75;97007.27;232233;204;151552;-62
2024/02/10 01:30:39;;;;;;;63.20;40.40;;;;;;;7.31;76.67;97002.38;232116;197;137484;-63
2024/02/10 01:35:42;;;;;;;64.10;39.80;;;;;;;7.39;76.71;96997.90;232258;204;137545;-62
2024/02/10 01:40:46;;;;;;;69.80;42.90;;;;;;;7.42;76.64;96997.77;232207;196;151056;-63
2024/02/10 01:45:52;;;;;;;61.40;39.40;;;;;;;7.51;76.74;96999.17;232345;201;138122;-63
2024/02/10 01:50:55;;;;;;;62.40;39.70;;;;;;;7.42;76.41;96998.34;232212;201;137431;-63
2024/02/10 01:56:00;;;;;;;58.20;37.80;;;;;;;7.39;76.89;96995.73;232206;198;152385;-62
2024/02/10 02:01:04;;;;;;;61.50;36.60;;;;;;;7.43;77.06;96993.30;232156;204;138402;-61
2024/02/10 02:06:10;;;;;;;57.80;37.20;;;;;;;7.43;77.21;96992.78;232242;197;137817;-61
2024/02/10 02:11:14;;;;;;;60.30;38.50;;;;;;;7.48;77.30;96990.73;232268;201;151305;-62
2024/02/10 02:16:17;;;;;;;60.70;38.80;;;;;;;7.53;77.31;96992.84;232203;204;137542;-60
2024/02/10 02:21:22;;;;;;;59.50;38.30;;;;;;;7.58;77.29;96990.10;232344;204;138006;-59
2024/02/10 02:26:25;;;;;;;57.80;38.00;;;;;;;7.60;77.12;96988.91;232168;197;151567;-60
2024/02/10 02:31:28;;;;;;;61.00;39.10;;;;;;;7.55;77.27;96981.73;232145;201;137888;-60
2024/02/10 02:36:31;;;;;;;62.60;40.00;;;;;;;7.52;77.43;96976.50;232095;196;137569;-61
2024/02/10 02:41:34;;;;;;;60.60;37.20;;;;;;;7.48;77.45;96975.08;232189;198;152392;-61
2024/02/10 02:46:37;;;;;;;60.80;36.60;;;;;;;7.45;77.64;96968.27;232267;204;137677;-61
2024/02/10 02:51:42;;;;;;;56.00;35.90;;;;;;;7.49;78.00;96967.73;232174;204;137815;-60
2024/02/10 02:56:45;;;;;;;62.30;39.90;;;;;;;7.56;78.10;96965.55;232188;198;151578;-61
2024/02/10 03:01:53;;;;;;;62.10;38.20;;;;;;;7.61;78.19;96964.60;232012;197;137049;-61
2024/02/10 03:06:57;;;;;;;59.70;36.80;;;;;;;7.65;78.13;96955.10;232043;198;138445;-60
2024/02/10 03:12:02;;;;;;;56.40;36.80;;;;;;;7.66;78.13;96951.70;232216;204;151257;-62
2024/02/10 03:17:07;;;;;;;54.40;35.90;;;;;;;7.66;78.28;96950.11;231981;204;136841;-61
2024/02/10 03:22:12;;;;;;;;;;;;;;;7.65;78.57;96950.02;232139;201;140262;-60
2024/02/10 03:27:17;;;;;;;52.40;33.90;;;;;;;7.66;78.53;96950.06;232427;198;152368;-60
2024/02/10 03:32:20;;;;;;;58.50;36.70;;;;;;;7.73;78.55;96954.62;232199;201;137821;-61
2024/02/10 03:37:28;;;;;;;58.30;36.10;;;;;;;7.80;78.23;96955.95;232207;200;138246;-61
2024/02/10 03:42:33;;;;;;;58.20;37.90;;;;;;;7.83;78.12;96961.68;232202;196;151459;-61
2024/02/10 03:47:37;;;;;;;61.80;39.40;;;;;;;7.84;77.89;96964.13;232129;200;137777;-61
2024/02/10 03:52:41;;;;;;;60.60;39.10;;;;;;;7.81;77.81;96964.66;232153;201;139187;-60
2024/02/10 03:57:45;;;;;;;56.30;37.20;;;;;;;7.80;77.86;96970.98;232311;197;151842;-60
2024/02/10 04:02:48;;;;;;;58.00;36.10;;;;;;;7.77;78.00;96974.96;232241;204;137491;-61
2024/02/10 04:07:52;;;;;;;53.20;34.10;;;;;;;7.75;77.99;96973.34;232292;204;138429;-61
2024/02/10 04:12:56;;;;;;;51.80;35.50;;;;;;;7.79;78.08;96970.17;232176;204;151645;-60
2024/02/10 04:18:00;;;;;;;57.40;36.20;;;;;;;7.88;78.25;96973.31;232083;201;138126;-62
2024/02/10 04:23:05;;;;;;;55.20;36.00;;;;;;;7.94;78.24;96972.45;232258;201;137859;-62
2024/02/10 04:28:08;;;;;;;56.20;37.60;;;;;;;8.00;78.30;96969.77;232209;201;151485;-62
2024/02/10 04:33:13;;;;;;;55.70;35.90;;;;;;;8.05;78.26;96969.88;232351;204;138553;-62
2024/02/10 04:38:17;;;;;;;54.00;35.00;;;;;;;8.09;78.28;96967.86;232106;204;140177;-61
2024/02/10 04:43:20;;;;;;;52.00;33.00;;;;;;;8.11;78.24;96970.34;232150;201;152372;-61
2024/02/10 04:48:25;;;;;;;50.90;33.80;;;;;;;8.15;78.23;96973.62;232221;200;138493;-61
2024/02/10 04:53:29;;;;;;;54.20;33.70;;;;;;;8.21;78.15;96973.98;232243;204;136927;-61
2024/02/10 04:58:32;;;;;;;53.90;34.40;;;;;;;8.24;78.16;96969.90;232262;201;151325;-61
2024/02/10 05:03:40;;;;;;;51.30;34.60;;;;;;;8.25;78.11;96964.19;232287;204;136826;-60
2024/02/10 05:08:45;;;;;;;55.20;34.60;;;;;;;8.25;78.20;96963.27;232159;201;137300;-60
2024/02/10 05:13:48;;;;;;;52.10;34.10;;;;;;;8.24;78.28;96961.39;232255;204;151591;-60
2024/02/10 05:18:54;;;;;;;49.40;31.70;;;;;;;8.27;78.41;96955.66;232009;198;137886;-60
2024/02/10 05:24:01;;;;;;;50.40;32.50;;;;;;;8.36;78.53;96952.09;232093;204;137470;-62
2024/02/10 05:29:10;;;;;;;48.60;32.70;;;;;;;8.46;78.76;96953.02;231890;198;151841;-63
2024/02/10 05:34:14;;;;;;;47.80;31.90;;;;;;;8.53;78.54;96947.80;231944;203;137610;-63
2024/02/10 05:39:20;;;;;;;51.10;34.00;;;;;;;8.56;78.68;96955.53;232115;198;137420;-61
2024/02/10 05:44:24;;;;;;;46.60;31.50;;;;;;;8.60;78.79;96954.42;231959;198;151147;-61
2024/02/10 05:49:27;;;;;;;42.80;28.10;;;;;;;8.63;79.23;96960.17;231933;202;139102;-61
2024/02/10 05:54:33;;;;;;;41.00;27.20;;;;;;;8.69;79.27;96965.80;231937;201;140177;-61
2024/02/10 05:59:38;;;;;;;44.30;30.00;;;;;;;8.75;78.96;96965.29;231997;198;151535;-62
2024/02/10 06:04:41;;;;;;;44.10;29.20;;;;;;;8.82;78.52;96966.29;231996;205;138061;-62
2024/02/10 06:09:45;;;;;;;42.60;29.00;;;;;;;8.86;78.61;96969.29;232074;198;137027;-63
2024/02/10 06:14:48;;;;;;;40.90;28.10;;;;;;;8.85;78.85;96967.60;231888;198;152169;-62
2024/02/10 06:19:52;;;;;;;72.30;54.10;;;;;;;8.88;78.84;96963.80;231888;204;136684;-63
2024/02/10 06:24:56;;;;;;;38.70;27.40;;;;;;;8.94;79.02;96971.98;231723;203;137969;-63
2024/02/10 06:30:00;;;;;;;37.80;24.20;;;;;;;8.99;79.07;96973.58;231656;198;151283;-63
2024/02/10 06:35:04;;;;;;;35.30;24.60;;;;;;;9.09;79.09;96974.00;231729;202;140379;-63
2024/02/10 06:40:08;;;;;;;80.10;56.70;;;;;;;9.16;79.04;96976.13;231694;197;136963;-62
2024/02/10 06:45:15;;;;;;;33.50;24.20;;;;;;;9.24;78.92;96976.14;231748;198;151701;-63
2024/02/10 06:50:26;;;;;;;27.20;19.80;;;;;;;9.29;79.09;96975.06;231653;198;137337;-63
2024/02/10 06:55:31;;;;;;;24.30;17.20;;;;;;;9.35;79.41;96980.66;231607;199;136877;-62
2024/02/10 07:00:40;;;;;;;21.40;16.00;;;;;;;9.40;79.19;96986.36;231649;199;151482;-62
2024/02/10 07:05:49;;;;;;;22.20;16.70;;;;;;;9.49;79.05;96986.84;231708;205;138056;-62
2024/02/10 07:10:53;;;;;;;31.70;17.30;;;;;;;9.55;79.13;96989.98;231803;198;137773;-63
2024/02/10 07:15:58;;;;;;;45.10;35.00;;;;;;;9.62;79.00;96986.35;231907;197;151466;-63
2024/02/10 07:21:02;;;;;;;20.00;15.20;;;;;;;9.61;79.08;96985.92;231701;198;137943;-63
2024/02/10 07:26:05;;;;;;;16.20;12.90;;;;;;;9.63;79.40;96986.29;231545;198;137772;-62
2024/02/10 07:31:08;;;;;;;79.70;59.40;;;;;;;9.63;79.54;96984.44;231685;205;153335;-63
2024/02/10 07:36:16;;;;;;;198.70;158.60;;;;;;;9.70;79.83;96979.98;231620;205;141767;-62
2024/02/10 07:41:19;;;;;;;19.30;12.20;;;;;;;9.94;79.97;96973.52;231664;198;140904;-61
2024/02/10 07:46:22;;;;;;;18.50;12.90;;;;;;;10.04;78.94;96972.80;231688;198;153246;-61
2024/02/10 07:51:25;;;;;;;19.40;13.70;;;;;;;10.07;78.50;96966.21;231707;197;137101;-61
2024/02/10 07:56:29;;;;;;;20.70;14.70;;;;;;;10.07;78.48;96966.94;231662;198;138521;-60
2024/02/10 08:01:32;;;;;;;18.90;13.80;;;;;;;10.06;78.56;96964.58;231585;202;153678;-60
2024/02/10 08:06:36;;;;;;;19.20;14.40;;;;;;;10.05;78.55;96960.92;231574;205;138962;-61
2024/02/10 08:11:44;;;;;;;18.90;13.10;;;;;;;10.06;78.68;96961.21;231714;202;138143;-61
2024/02/10 08:16:49;;;;;;;15.90;11.60;;;;;;;10.10;78.79;96966.69;231735;197;151105;-61
2024/02/10 08:21:53;;;;;;;19.30;13.40;;;;;;;10.21;78.90;96964.95;231781;198;137935;-61
2024/02/10 08:26:56;;;;;;;90.90;70.30;;;;;;;10.38;78.99;96965.11;231716;202;137584;-61
2024/02/10 08:32:03;;;;;;;17.90;13.80;;;;;;;10.50;78.59;96963.08;231739;197;151472;-61
2024/02/10 08:37:07;;;;;;;20.40;14.40;;;;;;;10.58;78.29;96968.60;231628;199;152924;-60
2024/02/10 08:42:15;;;;;;;18.60;13.40;;;;;;;10.57;77.88;96968.31;231696;198;138158;-61
2024/02/10 08:47:19;;;;;;;15.90;11.80;;;;;;;10.56;77.99;96972.29;231649;199;151257;-61
2024/02/10 08:52:22;;;;;;;17.30;13.10;;;;;;;10.58;77.98;96968.05;231750;198;139780;-61
2024/02/10 08:57:28;;;;;;;17.60;12.90;;;;;;;10.55;77.92;96971.14;231826;201;137139;-61
2024/02/10 09:02:33;;;;;;;18.40;13.90;;;;;;;10.54;78.10;96972.89;231778;198;153205;-59
2024/02/10 09:07:36;;;;;;;18.80;13.50;;;;;;;10.54;78.23;96973.02;231699;203;137746;-59
2024/02/10 09:12:39;;;;;;;16.90;12.50;;;;;;;10.55;78.55;96972.04;231690;197;138668;-59
2024/02/10 09:17:43;;;;;;;16.40;12.70;;;;;;;10.65;78.85;96972.37;231830;205;151181;-59
2024/02/10 09:22:47;;;;;;;16.40;11.80;;;;;;;10.77;78.87;96972.62;231689;197;138702;-59
2024/02/10 09:27:50;;;;;;;15.90;12.30;;;;;;;10.86;78.80;96979.75;231792;202;138277;-59
2024/02/10 09:32:53;;;;;;;19.90;13.60;;;;;;;10.94;78.63;96978.39;231605;199;153803;-59
2024/02/10 09:37:56;;;;;;;16.00;12.60;;;;;;;11.05;78.64;96976.09;231620;198;137263;-58
2024/02/10 09:43:04;;;;;;;16.70;13.50;;;;;;;11.16;78.77;96976.24;231625;198;139229;-59
2024/02/10 09:48:09;;;;;;;15.30;11.90;;;;;;;11.30;79.05;96973.06;231591;198;151578;-59
2024/02/10 09:53:13;;;;;;;16.10;11.50;;;;;;;11.45;79.04;96970.89;231548;205;138400;-59
2024/02/10 09:58:16;;;;;;;16.00;12.10;;;;;;;11.68;78.76;96966.89;231637;202;138584;-59
2024/02/10 10:03:20;;;;;;;169.50;135.40;;;;;;;11.85;78.54;96968.56;231666;197;151602;-61
2024/02/10 10:08:24;;;;;;;52.20;40.30;;;;;;;12.09;78.42;96971.55;231704;198;137689;-61
2024/02/10 10:13:28;;;;;;;40.60;28.40;;;;;;;12.18;77.92;96979.33;231782;198;136925;-61
2024/02/10 10:18:34;;;;;;;17.30;13.60;;;;;;;12.25;77.57;96977.36;231715;197;152806;-61
2024/02/10 10:23:37;;;;;;;15.60;12.10;;;;;;;12.33;77.44;96971.89;231633;198;138196;-62
2024/02/10 10:28:41;;;;;;;18.70;14.20;;;;;;;12.49;77.22;96966.02;231741;198;137890;-61
2024/02/10 10:33:48;;;;;;;16.80;13.10;;;;;;;12.70;76.99;96970.02;231779;206;151712;-61
2024/02/10 10:38:53;;;;;;;16.40;12.60;;;;;;;12.90;76.71;96962.95;231682;198;138628;-61
2024/02/10 10:44:01;;;;;;;17.10;13.20;;;;;;;13.17;76.41;96950.36;231685;199;136858;-59
2024/02/10 10:49:04;;;;;;;19.00;13.50;;;;;;;13.26;75.45;96944.79;231693;203;151549;-58
2024/02/10 10:54:10;;;;;;;14.80;12.40;;;;;;;13.29;75.37;96937.66;231639;197;140114;-57
2024/02/10 10:59:13;;;;;;;459.90;299.90;;;;;;;13.43;75.55;96932.14;231634;198;139267;-59
2024/02/10 11:04:18;;;;;;;25.30;18.30;;;;;;;13.84;76.21;96920.70;231734;198;152055;-60
2024/02/10 11:09:25;;;;;;;15.90;12.20;;;;;;;14.18;74.95;96916.24;231753;198;140425;-59
2024/02/10 11:14:31;;;;;;;13.90;11.20;;;;;;;14.45;73.95;96911.98;231661;197;139092;-61
2024/02/10 11:19:34;;;;;;;15.70;12.00;;;;;;;14.66;73.13;96908.73;231601;203;151613;-59
2024/02/10 11:24:44;;;;;;;15.80;11.70;;;;;;;14.94;72.73;96911.40;231564;198;138130;-59
2024/02/10 11:29:54;;;;;;;18.50;13.10;;;;;;;15.14;71.89;96910.23;231656;198;140754;-60
2024/02/10 11:34:58;;;;;;;21.60;14.40;;;;;;;15.25;70.98;96911.02;231624;197;152291;-58
2024/02/10 11:40:02;;;;;;;15.10;12.30;;;;;;;15.10;70.43;96916.95;231612;202;138643;-60
2024/02/10 11:45:09;;;;;;;15.60;12.00;;;;;;;14.88;70.30;96920.17;231745;197;138178;-59
2024/02/10 11:50:13;;;;;;;17.70;12.20;;;;;;;14.66;70.63;96926.61;231588;198;152057;-58
2024/02/10 11:55:18;;;;;;;13.60;11.20;;;;;;;14.50;71.01;96922.48;231570;198;141029;-58
2024/02/10 12:00:22;;;;;;;14.40;11.70;;;;;;;14.45;71.15;96924.48;231658;205;137923;-59
2024/02/10 12:05:28;;;;;;;16.20;12.30;;;;;;;14.43;71.38;96924.65;231610;198;153019;-62
2024/02/10 12:10:39;;;;;;;17.80;12.90;;;;;;;14.40;71.59;96929.23;231360;198;139574;-62
2024/02/10 12:15:43;;;;;;;53.70;42.40;;;;;;;14.35;72.01;96931.13;231685;201;137724;-59
2024/02/10 12:20:51;;;;;;;20.30;15.00;;;;;;;14.29;72.25;96931.38;231586;198;151865;-58
2024/02/10 12:25:55;;;;;;;15.40;11.30;;;;;;;14.25;72.39;96927.43;231556;202;137966;-59
2024/02/10 12:30:59;;;;;;;14.90;11.20;;;;;;;14.21;72.50;96927.52;231668;203;137917;-59
2024/02/10 12:36:02;;;;;;;14.10;11.20;;;;;;;14.25;72.67;96926.34;231675;198;151756;-59
2024/02/10 12:41:05;;;;;;;15.60;11.60;;;;;;;14.29;72.70;96931.07;231664;198;138350;-59
2024/02/10 12:46:12;;;;;;;13.70;10.30;;;;;;;14.31;72.76;96936.73;231694;198;137407;-58
2024/02/10 12:51:16;;;;;;;13.50;10.00;;;;;;;14.33;72.96;96933.93;231817;198;153351;-59
2024/02/10 12:56:22;;;;;;;14.50;10.40;;;;;;;14.37;72.95;96938.17;231620;198;138061;-59
2024/02/10 13:01:30;;;;;;;12.90;9.00;;;;;;;14.45;73.34;96935.33;231724;197;137658;-61
2024/02/10 13:06:34;;;;;;;14.40;8.70;;;;;;;14.69;73.41;96925.58;231647;197;151916;-57
2024/02/10 13:11:38;;;;;;;12.70;8.80;;;;;;;14.89;72.66;96923.74;231604;199;139797;-59
2024/02/10 13:16:41;;;;;;;12.10;8.50;;;;;;;15.06;72.23;96917.77;231696;202;138759;-58
2024/02/10 13:21:45;;;;;;;23.10;17.70;;;;;;;15.18;71.76;96919.05;231645;201;151689;-58
2024/02/10 13:26:49;;;;;;;42.50;26.50;;;;;;;15.45;72.46;96921.97;231459;197;138545;-45
2024/02/10 13:31:55;;;;;;;23.10;16.20;;;;;;;16.41;71.28;96925.85;231643;199;137733;-44
2024/02/10 14:03:13;;;;;;;13.20;8.20;;;;;;;17.65;64.44;96944.80;231773;199;138150;-42
2024/02/10 14:08:36;;;;;;;12.60;8.50;;;;;;;17.62;64.67;96950.57;231468;206;151395;-43
2024/02/10 14:13:46;;;;;;;14.00;9.10;;;;;;;17.53;64.72;96948.28;231505;198;137051;-56
2024/02/10 14:18:50;;;;;;;14.40;8.50;;;;;;;17.04;63.62;96951.58;231493;205;137808;-54
2024/02/10 14:23:53;;;;;;;25.90;22.10;;;;;;;16.52;64.22;96954.02;231445;200;153377;-53
2024/02/10 14:28:57;;;;;;;13.10;8.80;;;;;;;16.13;65.26;96953.90;231513;198;138266;-53
2024/02/10 14:34:02;;;;;;;10.80;7.80;;;;;;;15.81;65.89;96949.66;231375;198;137486;-51
2024/02/10 14:39:08;;;;;;;12.30;7.60;;;;;;;15.54;66.63;96947.80;231565;200;152275;-52
2024/02/10 14:44:12;;;;;;;13.30;8.00;;;;;;;15.33;67.23;96946.46;231434;198;138031;-53
2024/02/10 14:49:15;;;;;;;246.80;207.30;;;;;;;15.20;67.72;96952.56;231533;206;139430;-52
2024/02/10 14:54:21;;;;;;;65.80;40.90;;;;;;;15.15;68.23;96952.95;231500;202;151670;-55
2024/02/10 14:59:24;;;;;;;20.00;12.90;;;;;;;15.03;68.17;96959.58;231463;198;137688;-54
2024/02/10 15:04:27;;;;;;;19.30;10.60;;;;;;;14.84;68.42;96958.11;231456;203;137578;-55
2024/02/10 15:09:31;;;;;;;16.50;10.80;;;;;;;14.68;68.85;96959.41;231622;198;152143;-55
2024/02/10 15:14:35;;;;;;;17.90;10.40;;;;;;;14.54;69.26;96957.98;231516;205;138978;-57
2024/02/10 15:19:39;;;;;;;15.10;9.80;;;;;;;14.39;69.56;96961.70;231490;199;138773;-57
2024/02/10 15:24:43;;;;;;;14.80;9.70;;;;;;;14.24;70.01;96963.52;231499;198;151244;-55
2024/02/10 15:29:56;;;;;;;15.90;8.90;;;;;;;14.09;70.20;96958.95;231496;206;137409;-57
2024/02/10 15:35:05;;;;;;;15.20;9.80;;;;;;;13.96;70.44;96954.82;231545;199;137092;-57
2024/02/10 15:40:31;;;;;;;17.80;10.00;;;;;;;13.83;70.67;96951.74;231596;199;152405;-57
2024/02/10 15:45:38;;;;;;;16.10;11.20;;;;;;;13.70;70.81;96953.02;231686;199;137816;-56
2024/02/10 15:50:42;;;;;;;266.90;205.20;;;;;;;13.57;71.24;96963.59;231548;198;137792;-58
2024/02/10 15:55:47;;;;;;;30.20;22.90;;;;;;;13.46;71.55;96959.53;231601;199;151407;-58
2024/02/10 16:00:54;;;;;;;19.30;12.80;;;;;;;13.34;71.57;96965.85;231478;199;139134;-57
2024/02/10 16:05:58;;;;;;;18.00;11.70;;;;;;;13.17;72.01;96975.81;231469;198;139166;-54
2024/02/10 16:11:02;;;;;;;16.90;11.40;;;;;;;13.01;72.38;96979.00;231500;199;151488;-55
2024/02/10 16:16:07;;;;;;;21.50;13.50;;;;;;;12.92;72.74;96982.36;231494;198;138827;-57
2024/02/10 16:21:21;;;;;;;21.80;13.10;;;;;;;12.88;72.51;96984.69;231628;198;138246;-59
2024/02/10 16:26:24;;;;;;;23.40;13.60;;;;;;;12.77;72.70;96992.08;231476;199;151368;-60
2024/02/10 16:31:27;;;;;;;93.80;71.90;;;;;;;12.66;73.19;96996.27;231518;198;138491;-59
2024/02/10 16:36:34;;;;;;;36.80;22.40;;;;;;;12.58;73.23;96992.42;231433;200;140496;-62
2024/02/10 16:41:37;;;;;;;20.60;12.60;;;;;;;12.49;73.71;96990.36;231328;198;152064;-58
2024/02/10 16:46:47;;;;;;;18.30;12.10;;;;;;;12.35;73.30;96998.94;231427;205;141337;-58
2024/02/10 16:51:53;;;;;;;21.70;12.60;;;;;;;12.23;73.66;97004.16;231646;198;138786;-57
2024/02/10 16:56:56;;;;;;;23.20;12.90;;;;;;;12.16;73.40;97004.06;231551;206;150314;-59
2024/02/10 17:01:59;;;;;;;21.60;12.40;;;;;;;12.07;73.35;97010.10;231451;202;138200;-54
2024/02/10 17:07:03;;;;;;;19.00;11.90;;;;;;;12.00;73.46;97010.27;231542;202;138214;-63
2024/02/10 17:12:09;;;;;;;19.10;11.30;;;;;;;11.91;73.49;97003.04;231503;198;152185;-60
2024/02/10 17:17:14;;;;;;;20.80;12.00;;;;;;;11.80;73.34;97001.38;231459;200;137910;-60
2024/02/10 17:22:18;;;;;;;18.70;10.70;;;;;;;11.69;73.18;97000.23;231495;198;140121;-58
2024/02/10 17:27:21;;;;;;;19.20;10.00;;;;;;;11.56;73.39;96994.31;231566;198;152625;-61
2024/02/10 17:32:24;;;;;;;14.90;9.30;;;;;;;11.47;73.36;96991.70;231423;199;140050;-60
2024/02/10 17:37:28;;;;;;;14.90;8.80;;;;;;;11.43;73.33;97000.42;231472;202;140014;-62
2024/02/10 17:42:32;;;;;;;13.10;8.70;;;;;;;11.41;73.21;97003.52;231496;200;151447;-61
2024/02/10 17:47:35;;;;;;;14.90;9.90;;;;;;;11.34;72.82;97008.23;231413;203;136902;-62
2024/02/10 17:52:39;;;;;;;16.80;9.80;;;;;;;11.33;73.68;97005.32;231416;205;137830;-62
2024/02/10 17:57:43;;;;;;;15.40;9.70;;;;;;;11.23;72.89;97005.04;231572;198;151368;-62
2024/02/10 18:02:47;;;;;;;13.60;8.70;;;;;;;11.07;72.96;97004.52;231395;198;138577;-61
2024/02/10 18:07:52;;;;;;;15.70;9.60;;;;;;;10.97;73.22;96997.84;231487;202;138989;-61
2024/02/10 18:12:57;;;;;;;90.20;61.70;;;;;;;10.87;73.08;96999.52;231411;199;152453;-62
2024/02/10 18:18:00;;;;;;;26.90;17.20;;;;;;;10.83;73.96;96993.14;231443;206;138827;-61
2024/02/10 18:23:06;;;;;;;20.40;11.00;;;;;;;10.82;73.32;96988.93;231410;199;138536;-60
2024/02/10 18:28:12;;;;;;;16.10;11.30;;;;;;;10.83;73.23;96992.06;231503;199;151600;-61
2024/02/10 18:33:17;;;;;;;24.60;11.20;;;;;;;10.81;72.96;97000.37;231481;206;139230;-59
2024/02/10 18:38:24;;;;;;;19.60;11.30;;;;;;;10.76;73.00;97006.09;231458;198;139711;-61
2024/02/10 18:43:29;;;;;;;19.40;12.20;;;;;;;10.67;73.03;97004.58;231414;198;152032;-61
2024/02/10 18:48:33;;;;;;;20.20;12.10;;;;;;;10.60;73.06;97006.13;231356;199;137859;-60
2024/02/10 18:53:36;;;;;;;25.70;15.50;;;;;;;10.53;73.61;97005.42;231521;199;137077;-60
2024/02/10 18:58:40;;;;;;;23.40;11.70;;;;;;;10.51;73.53;97001.29;231452;198;151121;-64
2024/02/10 19:03:43;;;;;;;23.10;12.70;;;;;;;10.44;73.11;97006.05;231473;202;138944;-61
2024/02/10 19:08:50;;;;;;;24.90;12.20;;;;;;;10.39;73.10;97009.86;231422;203;139110;-61
2024/02/10 19:13:54;;;;;;;19.00;11.80;;;;;;;10.38;73.07;97009.96;231397;198;151456;-62
2024/02/10 19:18:57;;;;;;;26.10;12.90;;;;;;;10.34;73.17;97017.98;231418;198;138167;-61
2024/02/10 19:24:01;;;;;;;21.30;12.10;;;;;;;10.30;73.00;97020.20;231412;198;138527;-62
2024/02/10 19:29:06;;;;;;;19.10;12.30;;;;;;;10.19;73.05;97022.02;231425;203;151156;-60
2024/02/10 19:34:09;;;;;;;26.10;14.50;;;;;;;10.13;73.33;97022.23;231353;198;138126;-62
2024/02/10 19:39:15;;;;;;;25.10;15.20;;;;;;;10.09;73.26;97017.64;231504;206;140228;-60
2024/02/10 19:44:21;;;;;;;23.00;13.50;;;;;;;10.03;73.33;97019.42;231347;202;151663;-61
2024/02/10 19:49:25;;;;;;;22.80;14.30;;;;;;;9.99;73.41;97021.60;231271;199;138555;-61
2024/02/10 19:54:29;;;;;;;25.70;15.60;;;;;;;9.99;73.38;97021.63;231396;203;138148;-60
2024/02/10 19:59:32;;;;;;;24.10;16.20;;;;;;;10.01;73.30;97017.72;231406;205;151607;-61
2024/02/10 20:04:36;;;;;;;27.50;17.70;;;;;;;10.01;73.29;97016.61;231449;198;139187;-60
2024/02/10 20:09:40;;;;;;;516.20;336.20;;;;;;;10.04;74.50;97017.95;231561;199;138773;-41
2024/02/10 20:14:44;;;;;;;42.40;25.10;;;;;;;10.16;74.74;97010.42;231511;203;151342;-60
2024/02/10 20:19:47;;;;;;;29.50;18.20;;;;;;;10.10;73.34;97014.99;231480;198;138963;-61
2024/02/10 20:24:51;;;;;;;30.70;19.90;;;;;;;10.01;73.16;97018.23;231538;200;138501;-61
2024/02/10 20:29:54;;;;;;;32.30;20.00;;;;;;;9.90;73.30;97023.80;231515;199;151597;-61
2024/02/10 20:34:58;;;;;;;34.50;19.90;;;;;;;9.88;73.73;97024.55;231509;198;138316;-62
2024/02/10 20:40:02;;;;;;;32.70;20.20;;;;;;;9.92;73.75;97015.64;231488;202;137285;-63
2024/02/10 20:45:06;;;;;;;36.60;22.20;;;;;;;9.96;73.65;97013.31;231654;199;152319;-63
2024/02/10 20:50:10;;;;;;;39.40;23.80;;;;;;;9.98;73.63;97007.55;231510;198;138447;-63
2024/02/10 20:55:16;;;;;;;35.50;23.10;;;;;;;10.00;73.58;97005.37;231523;199;138402;-63
2024/02/10 21:00:20;;;;;;;34.40;21.10;;;;;;;9.99;73.51;96998.71;231503;199;152783;-61
2024/02/10 21:05:24;;;;;;;37.80;22.40;;;;;;;9.95;73.32;96996.09;231001;199;253045;-62
2024/02/10 21:10:27;;;;;;;37.80;22.50;;;;;;;9.96;73.56;96997.23;231638;206;138344;-63
2024/02/10 21:15:30;;;;;;;35.20;21.10;;;;;;;10.01;73.47;96991.23;231611;203;153051;-61
2024/02/10 21:20:33;;;;;;;31.40;20.40;;;;;;;10.07;73.37;96994.19;231479;204;139175;-62
2024/02/10 21:25:37;;;;;;;36.70;21.30;;;;;;;10.11;73.16;96993.18;231515;198;138353;-62
2024/02/10 21:30:40;;;;;;;34.20;21.90;;;;;;;10.13;73.15;96989.80;231534;203;151977;-62
2024/02/10 21:35:43;;;;;;;34.20;21.10;;;;;;;10.12;73.19;96983.84;231493;203;138771;-62
2024/02/10 21:40:48;;;;;;;33.60;20.30;;;;;;;10.11;73.19;96985.34;231573;198;137742;-62
2024/02/10 21:45:52;;;;;;;34.30;20.00;;;;;;;10.11;73.31;96987.48;231629;200;151357;-62
2024/02/10 21:50:56;;;;;;;40.50;21.70;;;;;;;10.15;73.21;96982.34;231600;203;137859;-61
2024/02/10 21:55:59;;;;;;;35.80;21.10;;;;;;;10.14;73.36;96977.05;231492;203;137936;-63
2024/02/10 22:01:07;;;;;;;34.20;19.60;;;;;;;10.14;73.36;96979.97;231532;198;153595;-62
2024/02/10 22:06:10;;;;;;;35.20;19.80;;;;;;;10.16;73.42;96981.48;231496;199;138759;-62
2024/02/10 22:11:15;;;;;;;36.50;19.70;;;;;;;10.21;73.26;96984.76;231525;206;139120;-62
2024/02/10 22:16:18;;;;;;;35.30;20.00;;;;;;;10.27;73.15;96985.34;231569;205;152018;-62
2024/02/10 22:21:22;;;;;;;31.50;19.20;;;;;;;10.29;73.06;96980.36;231601;199;137384;-61
2024/02/10 22:26:26;;;;;;;35.30;20.10;;;;;;;10.27;72.97;96984.80;231533;203;138318;-62
2024/02/10 22:31:35;;;;;;;34.60;20.10;;;;;;;10.21;73.11;96981.05;231530;200;151864;-60
2024/02/10 22:36:39;;;;;;;34.70;19.60;;;;;;;10.19;73.04;96986.06;231504;198;138511;-61
2024/02/10 22:41:46;;;;;;;33.30;18.60;;;;;;;10.15;73.13;96998.41;231488;203;138519;-61
2024/02/10 22:46:51;;;;;;;32.00;19.30;;;;;;;10.11;73.35;96994.24;231545;205;151833;-62
2024/02/10 22:52:21;;;;;;;34.80;18.90;;;;;;;10.07;73.55;96998.27;231479;200;138242;-61
2024/02/10 22:57:25;;;;;;;28.90;17.10;;;;;;;10.07;73.58;96988.60;231622;198;138569;-62
2024/02/10 23:06:17;;;;;;;32.20;18.80;;;;;;;10.21;73.65;96993.14;229513;214;706472;-59
2024/02/10 23:11:21;;;;;;;31.80;19.00;;;;;;;10.20;73.77;96980.52;230956;201;137390;-60
2024/02/10 23:16:26;;;;;;;34.20;17.70;;;;;;;10.19;73.87;96990.87;230943;202;136236;-60
2024/02/10 23:21:29;;;;;;;33.90;17.60;;;;;;;10.23;73.94;96993.45;230995;202;147660;-60
2024/02/10 23:26:33;;;;;;;29.00;17.30;;;;;;;10.17;74.03;96992.41;230876;202;137849;-61
2024/02/10 23:31:37;;;;;;;32.30;17.80;;;;;;;10.10;74.34;96989.73;230812;210;136398;-60
2024/02/10 23:36:44;;;;;;;32.00;16.90;;;;;;;10.05;74.51;96990.56;230875;209;147536;-60
2024/02/10 23:41:49;;;;;;;32.20;16.80;;;;;;;9.98;75.01;96986.94;230867;205;137263;-59